Etusivu
METAR-TAF:

METAR-TAF

Lentoasemat :

Juneau, Alaska, Yhdysvallat

Leveyspiiri: 58-21-17N, Pituuspiiri: 134-34-34W, korkeus merenpinnasta: 6 m

Tämänhetkinen sää

Tämä raportti tehtiin 34 minuuttia sitten, kello 18.53 UTC
Tuuli 8 kn lännestä
Lämpötila 19°C
Kosteus 68%
Ilmanpaine 1025 hPa
Näkyvyys: 16.1 km
Muutamia pilviä 30000 ft:n korkeudessa
Muutamia pilviä 35000 ft:n korkeudessa

METAR: PAJN 211853Z 27008KT 10SM FEW300 FEW350 19/13 A3027 RMK AO2 SLP250 T01890128

Aika: 11:27 (19:27 UTC)

Sääennuste

Tämä raportti tehtiin 2 tuntia ja 6 minuuttia sitten, kello 17.21 UTC
Ennuste voimassa 21. päivästä klo 18 UTC - 22. päivään klo 18 UTC
Tuuli 8 kn lännestä/lounaasta
Näkyvyys: 10 km
selkeää
From 22. päivästä klo 0700 UTC
Tuuli 4 kn lännestä/luoteesta
Näkyvyys: 10 km
Muutamia pilviä 6000 ft:n korkeudessa

TAF: PAJN 211721Z 2118/2218 25008KT P6SM SKC FM220700 30004KT P6SM FEW060

Säähavainnot ja -ennusteet yli 4000 lentoasemalta (METAR- ja TAF-raportit).

Käytössä olevat sääasemat on merkitty karttaan keltaisilla ja punaisilla pisteillä.

Aseta hiiri pisteen päälle nähdäksesi sääaseman nimen.

Klikkaa sitten nähdäksesi säähavainnot ja -ennusteet.

Kartan vaihtaminen: klikkaa mustalla rastilla varustettuja vihreitä pisteitä, niin voit zoomata sisään; viivalla varustettua vihreää pistettä, niin voit zoomata ulos tai vihreitä nuolia, niin pääset viereisille kartoille.


METAR-TAF: